Time;durP1;ratioP1;P1;durP2;ratioP2;P2;SDS_P1;SDS_P2;PMS_P1;PMS_P2;Temp;Humidity;BMP_temperature;BMP_pressure;BME280_temperature;BME280_humidity;BME280_pressure;Samples;Min_cycle;Max_cycle;Signal;HPM_P1;HPM_P2
2022/04/25 00:01:17;;;;;;;17.85;8.40;;;7.10;99.90;;;;;;4958905;28;20088;-78
2022/04/25 00:03:43;;;;;;;18.05;9.25;;;7.00;99.90;;;;;;4971338;28;20046;-79
2022/04/25 00:06:10;;;;;;;17.33;8.18;;;7.00;99.90;;;;;;4953619;28;20042;-79
2022/04/25 00:08:37;;;;;;;21.65;9.95;;;7.00;99.90;;;;;;4970611;28;20078;-79
2022/04/25 00:11:03;;;;;;;16.05;8.95;;;7.00;99.90;;;;;;4954384;28;20395;-78
2022/04/25 00:13:28;;;;;;;23.60;9.25;;;7.00;99.90;;;;;;4952735;28;20047;-79
2022/04/25 00:15:55;;;;;;;17.25;8.75;;;7.00;99.90;;;;;;4952956;28;20271;-79
2022/04/25 00:18:21;;;;;;;17.65;8.63;;;7.00;99.90;;;;;;4954983;28;20034;-78
2022/04/25 00:20:47;;;;;;;19.55;9.02;;;7.00;99.90;;;;;;4952268;28;20050;-78
2022/04/25 00:23:13;;;;;;;18.65;8.57;;;7.10;99.90;;;;;;4985335;28;20047;-78
2022/04/25 00:25:39;;;;;;;14.60;8.57;;;7.10;99.90;;;;;;4980776;28;20604;-79
2022/04/25 00:28:05;;;;;;;16.08;8.75;;;7.20;99.90;;;;;;4937528;28;20046;-78
2022/04/25 00:30:31;;;;;;;18.45;8.98;;;7.20;99.90;;;;;;4953822;28;20065;-78
2022/04/25 00:32:59;;;;;;;21.13;9.48;;;7.30;99.90;;;;;;4958908;28;20043;-78
2022/04/25 00:35:25;;;;;;;19.83;10.30;;;7.30;99.90;;;;;;4952852;28;20050;-78
2022/04/25 00:37:52;;;;;;;19.13;9.20;;;7.30;99.90;;;;;;4953958;28;20238;-79
2022/04/25 00:40:23;;;;;;;18.48;9.38;;;7.40;99.90;;;;;;4939535;28;20078;-79
2022/04/25 00:42:49;;;;;;;24.65;9.57;;;7.40;99.90;;;;;;4953121;28;20458;-79
2022/04/25 00:45:15;;;;;;;18.73;9.27;;;7.50;99.90;;;;;;4938312;28;20118;-79
2022/04/25 00:47:42;;;;;;;18.63;9.40;;;7.50;99.90;;;;;;4953516;28;20053;-78
2022/04/25 00:50:10;;;;;;;17.75;9.68;;;7.50;99.90;;;;;;4938788;28;20049;-78
2022/04/25 00:52:36;;;;;;;22.88;10.82;;;7.50;99.90;;;;;;4969655;28;20051;-79
2022/04/25 00:55:06;;;;;;;18.98;10.02;;;7.50;99.90;;;;;;4953074;28;20038;-79
2022/04/25 00:57:32;;;;;;;18.05;10.02;;;7.60;99.90;;;;;;4938287;28;20133;-79
2022/04/25 00:59:58;;;;;;;20.02;8.95;;;7.60;99.90;;;;;;4953629;28;20156;-79
2022/04/25 01:02:28;;;;;;;17.55;9.48;;;7.60;99.90;;;;;;4939622;28;20125;-79
2022/04/25 01:04:57;;;;;;;17.02;9.45;;;7.60;99.90;;;;;;4951379;28;20126;-79
2022/04/25 01:07:23;;;;;;;16.85;8.70;;;7.60;99.90;;;;;;4952681;28;20157;-79
2022/04/25 01:09:49;;;;;;;17.17;9.13;;;7.60;99.90;;;;;;4952479;28;20459;-78
2022/04/25 01:12:15;;;;;;;22.10;9.75;;;7.60;99.90;;;;;;4951547;28;20054;-79
2022/04/25 01:14:41;;;;;;;18.85;9.15;;;7.50;99.90;;;;;;4951389;28;20099;-80
2022/04/25 01:17:07;;;;;;;15.48;8.88;;;7.50;99.90;;;;;;4952723;28;20413;-79
2022/04/25 01:19:33;;;;;;;16.23;8.93;;;7.40;99.90;;;;;;4968067;28;20047;-78
2022/04/25 01:22:00;;;;;;;18.17;8.77;;;7.90;99.90;;;;;;4935617;28;20042;-79
2022/04/25 01:27:18;;;;;;;17.95;10.02;;;7.30;99.90;;;;;;4961974;28;20142;-79
2022/04/25 01:29:53;;;;;;;19.20;10.23;;;7.30;99.90;;;;;;4956519;28;20058;-79
2022/04/25 01:32:21;;;;;;;18.33;9.55;;;7.20;99.90;;;;;;4957120;28;20054;-79
2022/04/25 01:34:47;;;;;;;19.20;9.20;;;7.20;99.90;;;;;;4951233;28;20423;-79
2022/04/25 01:37:17;;;;;;;18.92;10.00;;;7.20;99.90;;;;;;4949013;28;20038;-79
2022/04/25 01:39:48;;;;;;;24.13;10.35;;;7.20;99.90;;;;;;4966446;28;20211;-79
2022/04/25 01:42:14;;;;;;;20.90;10.60;;;7.10;99.90;;;;;;4947675;28;20055;-79
2022/04/25 01:44:40;;;;;;;16.60;9.50;;;7.00;99.90;;;;;;4965411;28;20547;-79
2022/04/25 01:47:06;;;;;;;19.08;9.70;;;7.00;99.90;;;;;;4949533;28;20602;-78
2022/04/25 01:49:33;;;;;;;18.20;9.25;;;7.00;99.90;;;;;;4965195;28;20074;-79
2022/04/25 01:52:26;;;;;;;19.50;10.18;;;6.90;99.90;;;;;;4948279;28;20046;-79
2022/04/25 01:54:51;;;;;;;21.88;10.63;;;6.90;99.90;;;;;;4965355;28;20039;-79
2022/04/25 01:57:17;;;;;;;18.77;9.75;;;6.90;99.90;;;;;;4949605;28;20429;-79
2022/04/25 01:59:44;;;;;;;17.95;10.02;;;6.80;99.90;;;;;;4967558;28;20035;-79
2022/04/25 02:02:11;;;;;;;18.00;9.18;;;6.80;99.90;;;;;;4965729;28;20043;-79
2022/04/25 02:04:38;;;;;;;19.02;9.93;;;6.80;99.90;;;;;;4936203;28;20058;-79
2022/04/25 02:07:04;;;;;;;18.27;9.82;;;6.70;99.90;;;;;;4952648;28;20050;-79
2022/04/25 02:09:30;;;;;;;17.70;10.13;;;6.70;99.90;;;;;;4936035;28;20046;-78
2022/04/25 02:11:56;;;;;;;20.10;9.30;;;6.70;99.90;;;;;;4934672;28;20331;-78
2022/04/25 02:14:21;;;;;;;19.10;9.68;;;6.70;99.90;;;;;;4967680;28;20122;-79
2022/04/25 02:16:47;;;;;;;19.35;9.43;;;6.60;99.90;;;;;;4950067;28;20050;-78
2022/04/25 02:19:13;;;;;;;20.60;9.38;;;6.60;99.90;;;;;;4935761;28;20054;-79
2022/04/25 02:21:38;;;;;;;18.67;9.93;;;6.60;99.90;;;;;;4963229;28;20684;-79
2022/04/25 02:24:04;;;;;;;16.10;8.75;;;6.60;99.90;;;;;;4940661;28;20055;-79
2022/04/25 02:26:31;;;;;;;16.88;9.85;;;6.60;99.90;;;;;;4934158;28;20055;-79
2022/04/25 02:28:57;;;;;;;19.13;9.77;;;6.60;99.90;;;;;;4937180;28;20058;-78
2022/04/25 02:31:24;;;;;;;20.15;9.77;;;6.50;99.90;;;;;;4968224;28;20053;-78
2022/04/25 02:33:50;;;;;;;20.73;10.18;;;6.50;99.90;;;;;;4950544;28;20047;-79
2022/04/25 02:36:17;;;;;;;17.45;9.55;;;6.50;99.90;;;;;;4950558;28;20078;-78
2022/04/25 02:38:42;;;;;;;19.50;10.15;;;6.50;99.90;;;;;;4967271;28;20035;-79
2022/04/25 02:41:09;;;;;;;17.63;9.95;;;6.50;99.90;;;;;;4967303;28;20109;-79
2022/04/25 02:43:42;;;;;;;25.52;11.00;;;6.50;99.90;;;;;;4950154;28;20459;-78
2022/04/25 02:46:13;;;;;;;24.10;9.93;;;6.60;99.90;;;;;;4934633;28;20039;-78
2022/04/25 02:48:41;;;;;;;19.17;9.68;;;6.60;99.90;;;;;;4967731;28;20499;-79
2022/04/25 02:51:08;;;;;;;16.83;10.00;;;6.60;99.90;;;;;;4934949;28;20039;-78
2022/04/25 02:53:35;;;;;;;20.67;9.90;;;6.60;99.90;;;;;;4947530;28;20035;-79
2022/04/25 02:56:02;;;;;;;18.00;9.57;;;6.60;99.90;;;;;;4933083;28;20126;-78
2022/04/25 02:58:29;;;;;;;16.35;9.63;;;6.60;99.90;;;;;;4949526;28;20031;-78
2022/04/25 03:00:55;;;;;;;15.98;9.13;;;6.70;99.90;;;;;;4949405;28;20039;-78
2022/04/25 03:03:22;;;;;;;17.30;8.13;;;6.70;99.90;;;;;;4949971;28;20042;-78
2022/04/25 03:05:49;;;;;;;16.92;8.65;;;6.70;99.90;;;;;;4948645;28;20057;-79
2022/04/25 03:08:18;;;;;;;17.05;9.25;;;6.70;99.90;;;;;;4967326;28;20054;-79
2022/04/25 03:10:45;;;;;;;17.88;9.00;;;6.80;99.90;;;;;;4932401;28;20050;-78
2022/04/25 03:13:12;;;;;;;19.60;9.88;;;6.80;99.90;;;;;;4964545;28;20612;-78
2022/04/25 03:15:38;;;;;;;19.63;9.15;;;6.90;99.90;;;;;;4965101;28;20035;-79
2022/04/25 03:18:08;;;;;;;21.10;8.90;;;6.90;99.90;;;;;;4948512;28;20062;-79
2022/04/25 03:20:34;;;;;;;17.15;8.75;;;7.00;99.90;;;;;;4946973;28;20420;-79
2022/04/25 03:23:00;;;;;;;15.70;7.93;;;7.00;99.90;;;;;;4948222;28;20393;-78
2022/04/25 03:25:26;;;;;;;15.20;8.60;;;7.00;99.90;;;;;;4933411;28;20047;-79
2022/04/25 03:27:51;;;;;;;16.95;7.85;;;7.10;99.90;;;;;;4949318;28;20046;-81
2022/04/25 03:30:18;;;;;;;14.48;8.40;;;7.10;99.90;;;;;;4933466;28;20111;-79
2022/04/25 03:32:48;;;;;;;17.23;7.88;;;7.10;99.90;;;;;;4934221;28;20069;-79
2022/04/25 03:35:14;;;;;;;18.13;8.38;;;7.20;99.90;;;;;;4959564;28;20061;-79
2022/04/25 03:37:41;;;;;;;14.85;7.50;;;7.20;99.90;;;;;;4952373;28;20034;-79
2022/04/25 03:40:09;;;;;;;16.10;7.97;;;7.20;99.90;;;;;;4969785;28;20046;-79
2022/04/25 03:42:38;;;;;;;14.23;7.63;;;7.30;99.90;;;;;;4971485;28;20081;-79
2022/04/25 03:45:05;;;;;;;15.82;7.43;;;7.20;99.90;;;;;;4952187;28;20082;-78
2022/04/25 03:47:34;;;;;;;15.57;8.13;;;7.30;99.90;;;;;;4969549;28;20056;-78
2022/04/25 03:49:59;;;;;;;18.65;7.47;;;7.30;99.90;;;;;;4967919;28;20093;-79
2022/04/25 03:52:25;;;;;;;16.42;7.78;;;7.30;99.90;;;;;;4970604;28;20050;-79
2022/04/25 03:57:35;;;;;;;15.75;7.25;;;7.30;99.90;;;;;;4968704;28;20043;-79
2022/04/25 04:00:01;;;;;;;12.93;6.75;;;7.30;99.90;;;;;;4969276;28;20039;-79
2022/04/25 04:02:26;;;;;;;16.17;7.78;;;7.30;99.90;;;;;;4953982;28;20034;-78
2022/04/25 04:04:52;;;;;;;14.85;7.50;;;7.30;99.90;;;;;;4968675;28;20038;-80
2022/04/25 04:07:18;;;;;;;15.55;7.10;;;7.30;99.90;;;;;;4936290;28;20035;-79
2022/04/25 04:09:47;;;;;;;15.35;7.53;;;7.30;99.90;;;;;;4951775;28;20039;-79
2022/04/25 04:12:13;;;;;;;16.00;7.75;;;7.40;99.90;;;;;;4935043;29;20048;-79
2022/04/25 04:14:43;;;;;;;22.10;9.05;;;7.30;99.90;;;;;;4929297;29;20484;-79
2022/04/25 04:17:09;;;;;;;20.13;8.43;;;7.30;99.90;;;;;;4928795;29;20512;-80
2022/04/25 04:19:36;;;;;;;16.05;8.32;;;7.30;99.90;;;;;;4914979;29;20051;-79
2022/04/25 04:22:03;;;;;;;19.35;8.80;;;7.30;99.90;;;;;;4917164;29;20134;-80
2022/04/25 04:24:29;;;;;;;19.92;8.65;;;7.30;99.90;;;;;;4956451;28;20039;-79
2022/04/25 04:27:01;;;;;;;22.60;10.45;;;7.30;99.90;;;;;;4939359;28;20091;-79
2022/04/25 04:29:29;;;;;;;18.52;8.45;;;7.30;99.90;;;;;;4954445;28;20044;-79
2022/04/25 04:32:01;;;;;;;15.90;8.43;;;7.20;99.90;;;;;;4915042;28;20043;-79
2022/04/25 04:34:27;;;;;;;16.23;8.48;;;7.20;99.90;;;;;;4961251;28;20059;-78
2022/04/25 04:36:53;;;;;;;15.80;8.85;;;7.20;99.90;;;;;;4931381;29;20043;-78
2022/04/25 04:39:19;;;;;;;20.92;8.57;;;7.20;99.90;;;;;;4913898;29;20031;-78
2022/04/25 04:41:45;;;;;;;17.85;8.85;;;7.20;99.90;;;;;;4930213;29;20054;-79
2022/04/25 04:44:11;;;;;;;17.58;8.80;;;7.20;99.90;;;;;;4931205;29;20043;-79
2022/04/25 04:46:40;;;;;;;16.95;9.55;;;7.20;99.90;;;;;;4913470;29;20048;-79
2022/04/25 04:49:06;;;;;;;20.20;9.07;;;7.20;99.90;;;;;;4928422;29;20422;-77
2022/04/25 04:51:32;;;;;;;14.38;8.90;;;7.20;99.90;;;;;;4916968;29;20127;-79
2022/04/25 04:54:01;;;;;;;17.42;8.70;;;7.20;99.90;;;;;;4929246;29;20036;-78
2022/04/25 04:56:29;;;;;;;17.52;9.77;;;7.20;99.90;;;;;;4928225;29;20755;-79
2022/04/25 04:58:55;;;;;;;22.55;9.32;;;7.20;99.90;;;;;;4928685;29;20043;-78
2022/04/25 05:01:20;;;;;;;17.15;9.05;;;7.20;99.90;;;;;;4929573;29;20622;-77
2022/04/25 05:03:46;;;;;;;15.85;9.13;;;7.20;99.90;;;;;;4926849;29;20054;-79
2022/04/25 05:06:12;;;;;;;16.73;8.85;;;7.20;99.90;;;;;;4926234;29;20094;-78
2022/04/25 05:08:39;;;;;;;17.00;9.48;;;7.20;99.90;;;;;;4928320;29;20068;-78
2022/04/25 05:11:06;;;;;;;18.55;9.27;;;7.20;99.90;;;;;;4930665;28;20871;-78
2022/04/25 05:13:32;;;;;;;17.95;8.70;;;7.30;99.90;;;;;;4943568;28;20081;-79
2022/04/25 05:15:58;;;;;;;17.77;9.07;;;7.30;99.90;;;;;;4968021;28;20079;-79
2022/04/25 05:18:24;;;;;;;16.92;9.70;;;7.30;99.90;;;;;;4951993;28;20035;-78
2022/04/25 05:20:50;;;;;;;19.50;9.35;;;7.30;99.90;;;;;;4957398;28;20046;-78
2022/04/25 05:23:16;;;;;;;22.15;8.98;;;7.30;99.90;;;;;;4956009;28;20046;-78
2022/04/25 05:25:42;;;;;;;20.25;10.07;;;7.20;99.90;;;;;;4956726;28;20051;-77
2022/04/25 05:28:08;;;;;;;18.08;10.25;;;7.20;99.90;;;;;;4958739;28;20515;-78
2022/04/25 05:30:34;;;;;;;19.90;10.32;;;7.40;99.90;;;;;;4956606;28;20049;-78
2022/04/25 05:33:05;;;;;;;19.67;9.35;;;7.30;99.90;;;;;;4943981;28;20392;-78
2022/04/25 05:35:32;;;;;;;18.23;9.63;;;7.30;99.90;;;;;;4961596;28;20545;-79
2022/04/25 05:37:58;;;;;;;17.35;9.32;;;7.20;99.90;;;;;;4965074;28;20054;-78
2022/04/25 05:40:25;;;;;;;18.23;9.48;;;7.30;99.90;;;;;;4967127;28;20467;-78
2022/04/25 05:42:52;;;;;;;18.13;8.90;;;7.30;99.90;;;;;;4990215;28;20058;-79
2022/04/25 05:45:22;;;;;;;17.55;9.25;;;7.30;99.90;;;;;;4988427;28;20038;-79
2022/04/25 05:47:50;;;;;;;14.15;8.98;;;7.30;99.90;;;;;;4969745;28;20043;-79
2022/04/25 05:53:04;;;;;;;17.73;9.65;;;7.40;99.90;;;;;;4984498;28;20046;-78
2022/04/25 05:55:30;;;;;;;18.35;8.95;;;7.30;99.90;;;;;;4974849;28;20034;-79
2022/04/25 05:57:57;;;;;;;18.70;8.85;;;7.30;99.90;;;;;;4939927;28;20046;-78
2022/04/25 06:00:24;;;;;;;16.48;8.63;;;7.30;99.90;;;;;;4965554;28;20050;-78
2022/04/25 06:02:50;;;;;;;18.67;9.02;;;7.30;99.90;;;;;;4981578;28;20112;-78
2022/04/25 06:05:16;;;;;;;16.20;9.32;;;7.30;99.90;;;;;;4946349;28;20046;-78
2022/04/25 06:07:43;;;;;;;20.05;9.85;;;7.30;99.90;;;;;;4989226;28;20070;-78
2022/04/25 06:10:10;;;;;;;17.27;8.45;;;7.80;99.90;;;;;;4976134;28;20042;-78
2022/04/25 06:12:48;;;;;;;19.40;9.32;;;7.30;99.90;;;;;;4925911;28;20146;-78
2022/04/25 06:15:16;;;;;;;23.60;9.77;;;7.40;99.90;;;;;;4960364;28;20308;-78
2022/04/25 06:17:42;;;;;;;17.15;8.38;;;7.40;99.90;;;;;;4941585;28;20455;-77
2022/04/25 06:20:09;;;;;;;16.65;10.13;;;7.40;99.90;;;;;;4954941;28;20053;-79
2022/04/25 06:22:36;;;;;;;16.63;8.65;;;7.50;99.90;;;;;;4954475;28;20042;-78
2022/04/25 06:25:03;;;;;;;14.73;8.50;;;7.50;99.90;;;;;;4958519;28;20410;-79
2022/04/25 06:27:29;;;;;;;20.02;10.18;;;7.50;99.90;;;;;;4970710;28;20268;-78
2022/04/25 06:29:55;;;;;;;15.82;9.23;;;7.50;99.90;;;;;;4973303;28;20081;-79
2022/04/25 06:32:20;;;;;;;16.45;9.57;;;7.60;99.90;;;;;;4955381;28;20100;-79
2022/04/25 06:34:47;;;;;;;17.63;8.93;;;7.60;99.90;;;;;;4962678;28;20097;-79
2022/04/25 06:37:13;;;;;;;19.95;8.38;;;7.60;99.90;;;;;;4958285;28;20042;-79
2022/04/25 06:39:39;;;;;;;18.65;9.55;;;7.70;99.90;;;;;;4976003;28;20045;-79
2022/04/25 06:42:05;;;;;;;23.25;10.38;;;7.70;99.90;;;;;;4956402;28;20503;-79
2022/04/25 06:44:32;;;;;;;17.38;8.98;;;7.80;99.90;;;;;;4938408;28;20097;-78
2022/04/25 06:46:58;;;;;;;17.70;8.80;;;7.90;99.90;;;;;;4953598;28;20078;-80
2022/04/25 06:49:24;;;;;;;20.85;9.15;;;7.80;99.90;;;;;;4960945;28;20058;-78
2022/04/25 06:51:52;;;;;;;18.23;8.77;;;7.80;99.90;;;;;;4972557;28;20034;-78
2022/04/25 06:54:18;;;;;;;18.80;9.32;;;8.10;99.90;;;;;;4983710;28;20042;-78
2022/04/25 06:56:44;;;;;;;17.10;8.73;;;7.90;99.90;;;;;;4959778;28;20082;-79
2022/04/25 06:59:10;;;;;;;13.90;8.43;;;8.20;99.90;;;;;;4975779;28;20050;-79
2022/04/25 07:01:36;;;;;;;15.85;9.27;;;7.90;99.90;;;;;;4951160;28;20570;-78
2022/04/25 07:04:02;;;;;;;19.63;9.07;;;7.90;99.90;;;;;;4955893;28;20050;-78
2022/04/25 07:06:28;;;;;;;14.50;7.93;;;8.00;99.90;;;;;;4945591;28;20125;-77
2022/04/25 07:08:55;;;;;;;14.20;8.52;;;8.00;99.90;;;;;;4930064;28;20046;-78
2022/04/25 07:11:21;;;;;;;17.60;8.98;;;8.00;99.90;;;;;;4950335;28;20058;-78
2022/04/25 07:13:46;;;;;;;18.35;8.98;;;8.00;99.90;;;;;;4965054;28;20498;-78
2022/04/25 07:16:13;;;;;;;22.27;9.13;;;8.00;99.90;;;;;;4958697;28;20046;-78
2022/04/25 07:18:39;;;;;;;14.50;8.60;;;8.00;99.90;;;;;;4955343;28;20043;-78
2022/04/25 07:28:48;;;;;;;19.48;9.10;;;8.00;99.90;;;;;;4961885;28;20055;-78
2022/04/25 07:29:20;;;;;;;16.15;8.80;;;8.10;99.90;;;;;;4956372;28;20041;-79
2022/04/25 07:31:47;;;;;;;15.70;9.50;;;8.20;99.90;;;;;;4975274;28;20050;-78
2022/04/25 07:34:12;;;;;;;18.10;9.60;;;8.20;99.90;;;;;;4953879;28;20053;-78
2022/04/25 07:36:38;;;;;;;18.48;9.45;;;8.10;99.90;;;;;;4956475;28;20051;-79
2022/04/25 07:39:04;;;;;;;19.60;10.05;;;8.20;99.90;;;;;;4937791;28;20146;-79
2022/04/25 07:41:30;;;;;;;19.15;9.68;;;8.20;99.90;;;;;;4934562;28;20137;-78
2022/04/25 07:43:56;;;;;;;22.15;9.32;;;8.20;99.90;;;;;;4970173;28;20367;-80
2022/04/25 07:46:25;;;;;;;20.05;10.38;;;8.30;99.90;;;;;;4968892;28;20050;-79
2022/04/25 07:48:55;;;;;;;17.88;9.57;;;8.30;99.90;;;;;;4978728;28;20582;-79
2022/04/25 07:51:21;;;;;;;17.67;9.45;;;8.20;99.90;;;;;;4951193;28;20042;-82
2022/04/25 07:53:47;;;;;;;16.25;8.57;;;8.10;99.90;;;;;;4935002;28;20047;-78
2022/04/25 07:56:12;;;;;;;19.73;10.18;;;8.20;99.90;;;;;;4967336;28;20046;-78
2022/04/25 07:58:38;;;;;;;16.40;9.02;;;8.20;99.90;;;;;;4953268;28;20047;-79
2022/04/25 08:01:04;;;;;;;15.68;9.32;;;8.20;99.90;;;;;;4935654;28;20580;-79
2022/04/25 08:03:29;;;;;;;15.35;8.35;;;8.20;99.90;;;;;;4971062;28;20038;-79
2022/04/25 08:05:55;;;;;;;14.10;7.40;;;8.20;99.90;;;;;;4966180;28;20038;-79
2022/04/25 08:08:21;;;;;;;15.88;7.50;;;8.30;99.90;;;;;;4980497;28;20609;-79
2022/04/25 08:10:46;;;;;;;15.20;6.93;;;8.40;99.90;;;;;;4979932;28;20069;-78
2022/04/25 08:18:42;;;;;;;14.55;6.68;;;8.50;99.90;;;;;;4969981;28;20373;-78
2022/04/25 08:21:07;;;;;;;15.80;6.72;;;8.50;99.90;;;;;;4986985;28;20062;-78
2022/04/25 08:23:33;;;;;;;14.82;6.43;;;8.50;99.90;;;;;;4979985;28;20039;-78
2022/04/25 08:25:59;;;;;;;12.07;6.07;;;8.50;99.90;;;;;;4943698;28;20050;-78
2022/04/25 08:28:25;;;;;;;18.10;6.60;;;8.50;99.90;;;;;;4943172;28;20510;-80
2022/04/25 08:30:52;;;;;;;12.52;6.05;;;8.50;99.90;;;;;;4992858;28;20058;-79
2022/04/25 08:33:19;;;;;;;13.95;6.22;;;8.60;99.90;;;;;;4947559;28;20077;-79
2022/04/25 08:35:46;;;;;;;16.50;6.55;;;8.60;99.90;;;;;;4994388;28;20454;-80
2022/04/25 08:38:12;;;;;;;16.60;6.68;;;9.20;99.90;;;;;;4978551;28;20050;-79
2022/04/25 08:40:39;;;;;;;15.65;8.15;;;9.30;99.90;;;;;;4948930;28;20110;-81
2022/04/25 08:43:06;;;;;;;17.23;8.73;;;8.70;99.90;;;;;;4980126;28;20422;-79
2022/04/25 08:45:33;;;;;;;18.15;7.20;;;8.90;99.90;;;;;;4963189;28;20050;-79
2022/04/25 08:48:00;;;;;;;13.73;6.63;;;8.90;99.90;;;;;;4953886;28;20042;-81
2022/04/25 08:50:27;;;;;;;13.00;5.95;;;9.10;99.90;;;;;;4953354;28;20050;-81
2022/04/25 08:52:56;;;;;;;15.25;6.70;;;9.30;99.90;;;;;;4968941;28;20051;-81
2022/04/25 08:55:22;;;;;;;11.20;6.47;;;9.20;99.90;;;;;;4967168;28;20055;-82
2022/04/25 08:57:51;;;;;;;14.00;6.35;;;9.30;99.90;;;;;;4975400;28;20045;-80
2022/04/25 09:00:18;;;;;;;14.15;5.22;;;9.30;99.90;;;;;;4984648;28;20077;-82
2022/04/25 09:02:49;;;;;;;11.43;5.63;;;9.40;99.90;;;;;;4981880;28;20073;-80
2022/04/25 09:05:15;;;;;;;;;;;9.50;99.90;;;;;;4965461;28;20046;-81
2022/04/25 09:07:41;;;;;;;12.48;4.82;;;9.50;99.90;;;;;;4963529;28;19928;-81
2022/04/25 09:10:09;;;;;;;12.00;4.60;;;9.50;99.90;;;;;;4958776;28;20133;-81
2022/04/25 09:12:38;;;;;;;11.63;5.00;;;9.50;99.90;;;;;;4973516;28;20053;-82
2022/04/25 09:15:06;;;;;;;13.57;5.13;;;9.80;99.90;;;;;;4986072;28;20455;-80
2022/04/25 09:17:32;;;;;;;14.88;5.10;;;9.60;99.90;;;;;;4988997;28;20077;-81
2022/04/25 09:19:59;;;;;;;13.48;4.32;;;9.70;99.90;;;;;;4950841;28;20043;-81
2022/04/25 09:22:32;;;;;;;14.25;5.38;;;9.60;99.90;;;;;;4942228;28;20042;-82
2022/04/25 09:25:13;;;;;;;9.73;4.72;;;9.60;99.90;;;;;;4949940;28;20050;-81
2022/04/25 09:27:41;;;;;;;12.68;5.57;;;9.60;99.90;;;;;;4946688;28;20050;-80
2022/04/25 09:30:16;;;;;;;10.57;4.78;;;9.70;99.90;;;;;;4959623;28;20065;-81
2022/04/25 09:32:43;;;;;;;9.57;4.70;;;9.80;99.90;;;;;;4959353;28;20058;-80
2022/04/25 09:35:41;;;;;;;11.77;4.30;;;9.80;99.90;;;;;;4972074;28;20090;-80
2022/04/25 09:38:10;;;;;;;12.45;4.65;;;9.90;99.90;;;;;;4943108;28;20122;-79
2022/04/25 09:40:38;;;;;;;10.52;4.75;;;10.20;99.90;;;;;;4946478;28;20086;-80
2022/04/25 09:43:16;;;;;;;10.77;4.53;;;10.00;99.90;;;;;;4961044;28;20046;-81
2022/04/25 09:45:44;;;;;;;10.05;4.35;;;10.10;99.90;;;;;;4939304;28;20077;-80
2022/04/25 09:48:18;;;;;;;10.13;4.32;;;10.00;99.90;;;;;;4944414;28;20794;-79
2022/04/25 09:51:17;;;;;;;10.13;4.35;;;10.00;99.90;;;;;;4937111;28;20054;-79
2022/04/25 09:53:55;;;;;;;13.40;3.95;;;10.30;99.90;;;;;;4936276;28;20507;-80
2022/04/25 09:56:33;;;;;;;14.48;4.00;;;9.90;99.90;;;;;;4973570;28;20395;-80
2022/04/25 09:59:09;;;;;;;14.10;4.72;;;10.00;99.90;;;;;;4948325;28;20116;-79
2022/04/25 10:01:39;;;;;;;8.65;3.75;;;10.00;99.90;;;;;;4963565;28;21849;-79
2022/04/25 10:04:26;;;;;;;9.82;3.75;;;10.10;99.90;;;;;;4950643;28;20043;-82
2022/04/25 10:06:52;;;;;;;11.57;4.35;;;10.10;99.90;;;;;;4951088;28;20431;-81
2022/04/25 10:09:20;;;;;;;8.48;3.55;;;10.20;99.90;;;;;;4952434;28;20080;-81
2022/04/25 10:11:48;;;;;;;10.35;4.60;;;10.30;99.90;;;;;;4946500;28;20078;-80
2022/04/25 10:14:15;;;;;;;11.43;4.43;;;10.90;99.90;;;;;;4958435;28;20038;-80
2022/04/25 10:16:41;;;;;;;8.68;3.95;;;10.40;99.90;;;;;;4950626;28;20076;-80
2022/04/25 10:19:08;;;;;;;9.25;4.20;;;10.70;99.90;;;;;;4964557;28;20043;-80
2022/04/25 10:21:36;;;;;;;9.55;4.13;;;10.60;99.90;;;;;;4957393;28;20487;-81
2022/04/25 10:24:03;;;;;;;9.95;4.10;;;10.60;99.90;;;;;;4950001;28;20042;-81
2022/04/25 10:26:30;;;;;;;8.15;3.65;;;10.70;99.90;;;;;;4979715;28;20050;-81
2022/04/25 10:29:10;;;;;;;9.88;4.18;;;10.70;99.90;;;;;;4951820;28;20054;-81
2022/04/25 10:31:41;;;;;;;10.32;4.60;;;10.70;99.90;;;;;;4945340;28;20050;-81
2022/04/25 10:34:08;;;;;;;11.93;3.85;;;10.80;99.90;;;;;;4945347;28;20050;-81
2022/04/25 10:36:37;;;;;;;7.97;4.15;;;10.80;99.90;;;;;;4949090;28;20057;-81
2022/04/25 10:39:23;;;;;;;10.57;4.07;;;10.90;99.90;;;;;;4970160;28;20177;-80
2022/04/25 10:44:43;;;;;;;12.20;4.20;;;11.00;99.90;;;;;;4959295;28;20050;-80
2022/04/25 10:47:20;;;;;;;12.02;4.32;;;11.10;99.90;;;;;;4971720;28;20125;-80
2022/04/25 10:49:57;;;;;;;9.55;4.38;;;11.20;99.90;;;;;;4961290;28;20069;-81
2022/04/25 10:52:54;;;;;;;8.65;3.97;;;11.30;99.90;;;;;;4968547;28;20110;-82
2022/04/25 10:55:42;;;;;;;8.32;3.92;;;11.40;99.90;;;;;;4946317;28;20936;-81
2022/04/25 10:58:08;;;;;;;9.13;3.42;;;11.50;99.90;;;;;;4949537;28;20050;-82
2022/04/25 11:00:40;;;;;;;9.43;3.88;;;11.50;99.90;;;;;;4951781;28;20094;-82
2022/04/25 11:03:13;;;;;;;;;;;11.50;99.90;;;;;;4992256;28;20106;-80
2022/04/25 11:05:45;;;;;;;11.50;3.70;;;11.50;99.90;;;;;;4987406;28;19998;-81
2022/04/25 11:08:19;;;;;;;9.57;3.88;;;11.50;99.90;;;;;;4974680;28;20619;-81
2022/04/25 11:11:02;;;;;;;7.60;3.47;;;11.80;99.90;;;;;;4993057;28;20054;-82
2022/04/25 11:13:56;;;;;;;7.85;4.28;;;11.70;99.90;;;;;;4950877;28;20058;-81
2022/04/25 11:16:24;;;;;;;9.65;3.83;;;11.70;99.90;;;;;;4949718;28;20043;-81
2022/04/25 11:19:07;;;;;;;8.57;3.80;;;11.80;99.90;;;;;;4966298;28;20189;-81
2022/04/25 11:21:33;;;;;;;10.60;4.22;;;11.80;99.90;;;;;;4962305;28;20051;-82
2022/04/25 11:24:01;;;;;;;9.77;3.70;;;11.80;99.90;;;;;;4942022;28;20077;-81
2022/04/25 11:26:28;;;;;;;11.05;4.25;;;11.80;99.90;;;;;;4942357;28;20051;-82
2022/04/25 11:29:07;;;;;;;10.98;3.70;;;11.90;99.90;;;;;;4944461;28;20054;-82
2022/04/25 11:31:38;;;;;;;9.30;3.53;;;12.00;99.90;;;;;;4946969;28;20057;-83
2022/04/25 11:34:11;;;;;;;9.43;3.65;;;12.00;99.90;;;;;;4956608;28;20091;-81
2022/04/25 11:36:41;;;;;;;11.65;4.15;;;12.10;99.90;;;;;;4945392;28;20485;-81
2022/04/25 11:41:52;;;;;;;8.70;3.92;;;12.10;99.90;;;;;;4959522;28;20059;-83
2022/04/25 11:44:18;;;;;;;11.77;4.00;;;12.20;99.90;;;;;;4976714;28;20646;-81
2022/04/25 11:46:45;;;;;;;9.52;3.88;;;12.20;99.90;;;;;;4943114;28;20153;-83
2022/04/25 11:49:11;;;;;;;11.25;3.38;;;12.20;99.90;;;;;;4946329;28;20134;-82
2022/04/25 11:51:38;;;;;;;9.15;3.63;;;12.20;99.90;;;;;;4930952;28;20682;-81
2022/04/25 11:54:06;;;;;;;16.13;4.15;;;12.20;99.90;;;;;;4946129;28;20053;-80
2022/04/25 11:56:34;;;;;;;13.35;4.40;;;12.20;99.90;;;;;;4959341;28;20035;-81
2022/04/25 11:59:05;;;;;;;10.80;4.18;;;12.30;99.90;;;;;;4977188;28;20046;-82
2022/04/25 12:01:32;;;;;;;9.23;4.35;;;12.30;99.90;;;;;;4963352;28;20035;-81
2022/04/25 12:04:20;;;;;;;10.10;4.05;;;12.40;99.90;;;;;;4929652;28;20046;-82
2022/04/25 12:06:58;;;;;;;12.75;4.25;;;12.30;99.90;;;;;;4943606;28;20133;-80
2022/04/25 12:17:45;;;;;;;12.15;4.63;;;12.30;99.90;;;;;;4963504;28;20069;-81
2022/04/25 12:20:14;;;;;;;12.93;5.45;;;12.40;99.90;;;;;;4958135;28;20603;-81
2022/04/25 12:22:51;;;;;;;10.23;4.18;;;12.30;99.90;;;;;;4976496;28;20054;-81
2022/04/25 12:25:23;;;;;;;14.13;5.15;;;12.20;99.90;;;;;;4955766;28;20450;-80
2022/04/25 12:28:02;;;;;;;10.52;5.05;;;12.60;99.90;;;;;;4962761;28;20104;-79
2022/04/25 12:30:28;;;;;;;9.52;4.05;;;12.20;99.90;;;;;;4943668;28;20043;-81
2022/04/25 12:33:12;;;;;;;9.52;4.57;;;12.20;99.90;;;;;;4964636;28;20096;-78
2022/04/25 12:35:38;;;;;;;11.00;4.47;;;12.30;99.90;;;;;;4939845;28;20431;-80
2022/04/25 12:38:05;;;;;;;9.27;4.30;;;12.30;99.90;;;;;;4932201;28;20051;-79
2022/04/25 12:40:32;;;;;;;12.82;4.43;;;12.50;99.90;;;;;;4978308;28;20052;-79
2022/04/25 12:42:58;;;;;;;10.45;4.00;;;12.40;99.90;;;;;;4960622;28;20053;-81
2022/04/25 12:45:25;;;;;;;12.30;4.53;;;12.40;99.90;;;;;;4971846;28;20150;-80
2022/04/25 12:47:58;;;;;;;9.45;4.28;;;12.50;99.90;;;;;;4949885;28;20065;-79
2022/04/25 12:50:44;;;;;;;10.68;3.88;;;12.50;99.90;;;;;;4951898;28;20383;-81
2022/04/25 12:53:10;;;;;;;12.25;4.18;;;12.50;99.90;;;;;;4958108;28;20402;-80
2022/04/25 12:55:47;;;;;;;10.90;4.50;;;12.50;99.90;;;;;;4963320;28;20054;-80
2022/04/25 12:58:14;;;;;;;18.80;4.18;;;12.40;99.90;;;;;;4968150;28;20038;-78
2022/04/25 13:00:44;;;;;;;10.52;4.90;;;12.70;99.90;;;;;;4962105;28;20049;-77
2022/04/25 13:03:11;;;;;;;8.10;4.05;;;12.40;99.90;;;;;;4962427;28;20050;-78
2022/04/25 13:05:37;;;;;;;11.15;4.65;;;12.50;99.90;;;;;;4967459;28;20503;-76
2022/04/25 13:08:03;;;;;;;17.50;4.88;;;12.60;99.90;;;;;;4973598;28;20061;-78
2022/04/25 13:10:30;;;;;;;9.32;4.05;;;12.60;99.90;;;;;;4968987;28;20038;-77
2022/04/25 13:12:56;;;;;;;11.38;4.65;;;12.50;99.90;;;;;;4978708;28;20467;-76
2022/04/25 13:15:29;;;;;;;9.75;4.85;;;12.50;99.90;;;;;;4978438;28;20109;-80
2022/04/25 13:17:55;;;;;;;10.07;4.32;;;12.50;99.90;;;;;;4975004;28;20100;-79
2022/04/25 13:20:24;;;;;;;8.25;4.00;;;12.50;99.90;;;;;;4991296;28;20043;-80
2022/04/25 13:22:51;;;;;;;9.30;4.25;;;12.50;99.90;;;;;;4998106;28;20031;-78
2022/04/25 13:25:23;;;;;;;12.05;4.80;;;12.50;99.90;;;;;;4972291;28;20057;-78